sensor_id;sensor_type;location;lat;lon;timestamp;pressure;altitude;pressure_sealevel;temperature;humidity
75136;BME280;63707;52.212;9.540;2023-06-26T00:01:04;99924.50;;;19.10;100.00
75136;BME280;63707;52.212;9.540;2023-06-26T00:03:30;99915.50;;;19.30;100.00
75136;BME280;63707;52.212;9.540;2023-06-26T00:05:57;99919.13;;;19.77;100.00
75136;BME280;63707;52.212;9.540;2023-06-26T00:08:25;99917.38;;;19.61;100.00
75136;BME280;63707;52.212;9.540;2023-06-26T00:10:51;99905.66;;;20.01;100.00
75136;BME280;63707;52.212;9.540;2023-06-26T00:13:18;99908.00;;;20.50;100.00
75136;BME280;63707;52.212;9.540;2023-06-26T00:15:43;99900.53;;;20.40;100.00
75136;BME280;63707;52.212;9.540;2023-06-26T00:18:09;99901.59;;;20.34;100.00
75136;BME280;63707;52.212;9.540;2023-06-26T00:20:34;99896.94;;;20.45;100.00
75136;BME280;63707;52.212;9.540;2023-06-26T00:23:00;99891.41;;;20.65;100.00
75136;BME280;63707;52.212;9.540;2023-06-26T00:25:25;99889.50;;;20.81;100.00
75136;BME280;63707;52.212;9.540;2023-06-26T00:27:51;99892.50;;;20.59;100.00
75136;BME280;63707;52.212;9.540;2023-06-26T00:30:18;99899.44;;;20.62;100.00
75136;BME280;63707;52.212;9.540;2023-06-26T00:32:43;99898.31;;;20.42;100.00
75136;BME280;63707;52.212;9.540;2023-06-26T00:35:09;99885.31;;;20.58;100.00
75136;BME280;63707;52.212;9.540;2023-06-26T00:37:35;99897.41;;;20.32;100.00
75136;BME280;63707;52.212;9.540;2023-06-26T00:40:00;99890.84;;;20.43;100.00
75136;BME280;63707;52.212;9.540;2023-06-26T00:42:26;99895.13;;;19.88;100.00
75136;BME280;63707;52.212;9.540;2023-06-26T00:44:51;99897.50;;;19.64;100.00
75136;BME280;63707;52.212;9.540;2023-06-26T00:47:18;99898.22;;;19.44;100.00
75136;BME280;63707;52.212;9.540;2023-06-26T00:49:44;99895.34;;;19.76;100.00
75136;BME280;63707;52.212;9.540;2023-06-26T00:52:09;99889.06;;;19.96;100.00
75136;BME280;63707;52.212;9.540;2023-06-26T00:54:35;99900.69;;;20.08;100.00
75136;BME280;63707;52.212;9.540;2023-06-26T00:57:00;99886.88;;;20.13;100.00
75136;BME280;63707;52.212;9.540;2023-06-26T00:59:26;99890.56;;;20.45;100.00
75136;BME280;63707;52.212;9.540;2023-06-26T01:01:51;99883.38;;;20.89;100.00
75136;BME280;63707;52.212;9.540;2023-06-26T01:04:18;99881.13;;;21.12;100.00
75136;BME280;63707;52.212;9.540;2023-06-26T01:06:45;99870.06;;;20.76;100.00
75136;BME280;63707;52.212;9.540;2023-06-26T01:09:15;99876.47;;;20.92;100.00
75136;BME280;63707;52.212;9.540;2023-06-26T01:11:41;99875.88;;;21.00;100.00
75136;BME280;63707;52.212;9.540;2023-06-26T01:14:07;99872.31;;;20.69;100.00
75136;BME280;63707;52.212;9.540;2023-06-26T01:16:32;99867.59;;;20.85;100.00
75136;BME280;63707;52.212;9.540;2023-06-26T01:18:59;99868.44;;;20.50;100.00
75136;BME280;63707;52.212;9.540;2023-06-26T01:21:26;99861.78;;;20.40;100.00
75136;BME280;63707;52.212;9.540;2023-06-26T01:24:02;99861.78;;;20.56;100.00
75136;BME280;63707;52.212;9.540;2023-06-26T01:26:34;99863.19;;;20.48;100.00
75136;BME280;63707;52.212;9.540;2023-06-26T01:29:02;99862.63;;;20.41;100.00
75136;BME280;63707;52.212;9.540;2023-06-26T01:31:29;99863.38;;;20.31;100.00
75136;BME280;63707;52.212;9.540;2023-06-26T01:33:56;99868.34;;;20.09;100.00
75136;BME280;63707;52.212;9.540;2023-06-26T01:36:22;99861.72;;;20.20;100.00
75136;BME280;63707;52.212;9.540;2023-06-26T01:38:48;99861.44;;;20.27;100.00
75136;BME280;63707;52.212;9.540;2023-06-26T01:41:14;99846.03;;;20.41;100.00
75136;BME280;63707;52.212;9.540;2023-06-26T01:43:56;99852.59;;;20.25;100.00
75136;BME280;63707;52.212;9.540;2023-06-26T01:46:25;99839.22;;;19.81;100.00
75136;BME280;63707;52.212;9.540;2023-06-26T01:49:00;99847.72;;;19.54;100.00
75136;BME280;63707;52.212;9.540;2023-06-26T01:51:30;99849.31;;;19.50;100.00
75136;BME280;63707;52.212;9.540;2023-06-26T01:53:58;99848.75;;;19.48;100.00
75136;BME280;63707;52.212;9.540;2023-06-26T01:56:24;99839.75;;;19.15;100.00
75136;BME280;63707;52.212;9.540;2023-06-26T01:58:53;99834.16;;;19.00;100.00
75136;BME280;63707;52.212;9.540;2023-06-26T02:01:20;99839.78;;;19.21;100.00
75136;BME280;63707;52.212;9.540;2023-06-26T02:03:46;99837.28;;;19.19;100.00
75136;BME280;63707;52.212;9.540;2023-06-26T02:06:12;99838.44;;;19.33;100.00
75136;BME280;63707;52.212;9.540;2023-06-26T02:08:37;99834.03;;;19.32;100.00
75136;BME280;63707;52.212;9.540;2023-06-26T02:11:03;99834.56;;;19.29;100.00
75136;BME280;63707;52.212;9.540;2023-06-26T02:13:28;99829.94;;;19.40;100.00
75136;BME280;63707;52.212;9.540;2023-06-26T02:15:55;99824.19;;;19.52;100.00
75136;BME280;63707;52.212;9.540;2023-06-26T02:18:20;99818.44;;;19.58;100.00
75136;BME280;63707;52.212;9.540;2023-06-26T02:20:48;99825.59;;;19.54;100.00
75136;BME280;63707;52.212;9.540;2023-06-26T02:23:14;99822.09;;;19.22;100.00
75136;BME280;63707;52.212;9.540;2023-06-26T02:25:39;99820.94;;;19.07;100.00
75136;BME280;63707;52.212;9.540;2023-06-26T02:28:05;99818.16;;;19.07;100.00
75136;BME280;63707;52.212;9.540;2023-06-26T02:30:30;99825.13;;;19.20;100.00
75136;BME280;63707;52.212;9.540;2023-06-26T02:32:57;99821.00;;;19.23;100.00
75136;BME280;63707;52.212;9.540;2023-06-26T02:35:22;99812.00;;;19.42;100.00
75136;BME280;63707;52.212;9.540;2023-06-26T02:37:48;99813.84;;;19.27;100.00
75136;BME280;63707;52.212;9.540;2023-06-26T02:40:14;99801.69;;;19.33;100.00
75136;BME280;63707;52.212;9.540;2023-06-26T02:42:39;99803.72;;;19.47;100.00
75136;BME280;63707;52.212;9.540;2023-06-26T02:45:05;99804.81;;;19.46;100.00
75136;BME280;63707;52.212;9.540;2023-06-26T02:47:31;99808.34;;;19.37;100.00
75136;BME280;63707;52.212;9.540;2023-06-26T02:49:58;99804.44;;;19.23;100.00
75136;BME280;63707;52.212;9.540;2023-06-26T02:52:23;99795.59;;;19.26;100.00
75136;BME280;63707;52.212;9.540;2023-06-26T02:54:49;99791.91;;;19.67;100.00
75136;BME280;63707;52.212;9.540;2023-06-26T02:57:14;99797.06;;;19.43;100.00
75136;BME280;63707;52.212;9.540;2023-06-26T02:59:40;99791.47;;;19.28;100.00
75136;BME280;63707;52.212;9.540;2023-06-26T03:02:06;99796.03;;;18.97;100.00
75136;BME280;63707;52.212;9.540;2023-06-26T03:04:31;99791.13;;;19.09;100.00
75136;BME280;63707;52.212;9.540;2023-06-26T03:06:58;99792.97;;;18.94;100.00
75136;BME280;63707;52.212;9.540;2023-06-26T03:09:23;99783.66;;;19.10;100.00
75136;BME280;63707;52.212;9.540;2023-06-26T03:11:49;99792.69;;;18.95;100.00
75136;BME280;63707;52.212;9.540;2023-06-26T03:14:15;99790.25;;;19.04;100.00
75136;BME280;63707;52.212;9.540;2023-06-26T03:16:40;99779.78;;;19.06;100.00
75136;BME280;63707;52.212;9.540;2023-06-26T03:19:06;99784.38;;;18.90;100.00
75136;BME280;63707;52.212;9.540;2023-06-26T03:21:54;99779.75;;;19.01;100.00
75136;BME280;63707;52.212;9.540;2023-06-26T03:24:21;99772.06;;;19.13;100.00
75136;BME280;63707;52.212;9.540;2023-06-26T03:26:47;99769.03;;;19.09;100.00
75136;BME280;63707;52.212;9.540;2023-06-26T03:29:12;99778.22;;;19.35;100.00
75136;BME280;63707;52.212;9.540;2023-06-26T03:31:38;99768.66;;;19.53;100.00
75136;BME280;63707;52.212;9.540;2023-06-26T03:34:03;99766.13;;;19.46;100.00
75136;BME280;63707;52.212;9.540;2023-06-26T03:36:29;99765.06;;;19.53;100.00
75136;BME280;63707;52.212;9.540;2023-06-26T03:38:54;99764.34;;;19.88;100.00
75136;BME280;63707;52.212;9.540;2023-06-26T03:41:23;99760.97;;;19.86;100.00
75136;BME280;63707;52.212;9.540;2023-06-26T03:43:49;99766.00;;;20.09;100.00
75136;BME280;63707;52.212;9.540;2023-06-26T03:46:14;99772.34;;;19.89;100.00
75136;BME280;63707;52.212;9.540;2023-06-26T03:48:40;99762.41;;;20.24;100.00
75136;BME280;63707;52.212;9.540;2023-06-26T03:51:06;99751.88;;;20.26;100.00
75136;BME280;63707;52.212;9.540;2023-06-26T03:53:32;99753.28;;;20.03;100.00
75136;BME280;63707;52.212;9.540;2023-06-26T03:55:57;99766.28;;;19.97;100.00
75136;BME280;63707;52.212;9.540;2023-06-26T03:58:24;99754.34;;;20.32;100.00
75136;BME280;63707;52.212;9.540;2023-06-26T04:00:51;99754.41;;;20.42;100.00
75136;BME280;63707;52.212;9.540;2023-06-26T04:03:20;99758.75;;;20.74;100.00
75136;BME280;63707;52.212;9.540;2023-06-26T04:05:46;99754.09;;;20.59;100.00
75136;BME280;63707;52.212;9.540;2023-06-26T04:08:12;99754.13;;;20.44;100.00
75136;BME280;63707;52.212;9.540;2023-06-26T04:10:38;99751.34;;;20.54;100.00
75136;BME280;63707;52.212;9.540;2023-06-26T04:13:03;99746.91;;;20.58;100.00
75136;BME280;63707;52.212;9.540;2023-06-26T04:15:30;99757.72;;;20.39;100.00
75136;BME280;63707;52.212;9.540;2023-06-26T04:17:56;99744.44;;;20.41;100.00
75136;BME280;63707;52.212;9.540;2023-06-26T04:20:21;99745.28;;;20.47;100.00
75136;BME280;63707;52.212;9.540;2023-06-26T04:22:47;99742.78;;;20.46;100.00
75136;BME280;63707;52.212;9.540;2023-06-26T04:25:12;99743.56;;;20.61;100.00
75136;BME280;63707;52.212;9.540;2023-06-26T04:27:38;99741.69;;;20.41;100.00
75136;BME280;63707;52.212;9.540;2023-06-26T04:30:04;99741.38;;;20.28;100.00
75136;BME280;63707;52.212;9.540;2023-06-26T04:32:31;99743.84;;;20.24;100.00
75136;BME280;63707;52.212;9.540;2023-06-26T04:34:57;99732.47;;;20.82;100.00
75136;BME280;63707;52.212;9.540;2023-06-26T04:37:23;99733.03;;;20.84;100.00
75136;BME280;63707;52.212;9.540;2023-06-26T04:39:49;99734.91;;;20.93;100.00
75136;BME280;63707;52.212;9.540;2023-06-26T04:42:15;99731.53;;;21.06;100.00
75136;BME280;63707;52.212;9.540;2023-06-26T04:44:40;99726.50;;;21.24;100.00
75136;BME280;63707;52.212;9.540;2023-06-26T04:49:33;99725.63;;;21.33;100.00
75136;BME280;63707;52.212;9.540;2023-06-26T04:51:59;99726.34;;;21.54;100.00
75136;BME280;63707;52.212;9.540;2023-06-26T04:54:25;99726.03;;;21.61;100.00
75136;BME280;63707;52.212;9.540;2023-06-26T04:56:51;99721.06;;;21.58;100.00
75136;BME280;63707;52.212;9.540;2023-06-26T04:59:17;99717.34;;;21.73;100.00
75136;BME280;63707;52.212;9.540;2023-06-26T05:01:42;99720.94;;;21.78;100.00
75136;BME280;63707;52.212;9.540;2023-06-26T05:04:13;99717.00;;;21.84;100.00
75136;BME280;63707;52.212;9.540;2023-06-26T05:06:40;99717.84;;;21.85;100.00
75136;BME280;63707;52.212;9.540;2023-06-26T05:09:06;99718.56;;;21.95;100.00
75136;BME280;63707;52.212;9.540;2023-06-26T05:11:31;99722.41;;;22.05;100.00
75136;BME280;63707;52.212;9.540;2023-06-26T05:13:57;99717.69;;;22.00;100.00
75136;BME280;63707;52.212;9.540;2023-06-26T05:16:22;99714.34;;;22.08;100.00
75136;BME280;63707;52.212;9.540;2023-06-26T05:18:47;99712.09;;;22.10;100.00
75136;BME280;63707;52.212;9.540;2023-06-26T05:21:13;99715.34;;;22.17;100.00
75136;BME280;63707;52.212;9.540;2023-06-26T05:23:42;99716.69;;;22.25;100.00
75136;BME280;63707;52.212;9.540;2023-06-26T05:26:10;99717.25;;;22.27;100.00
75136;BME280;63707;52.212;9.540;2023-06-26T05:28:36;99716.19;;;22.18;100.00
75136;BME280;63707;52.212;9.540;2023-06-26T05:31:03;99717.25;;;22.22;100.00
75136;BME280;63707;52.212;9.540;2023-06-26T05:33:30;99712.81;;;22.26;100.00
75136;BME280;63707;52.212;9.540;2023-06-26T05:35:56;99716.13;;;22.23;100.00
75136;BME280;63707;52.212;9.540;2023-06-26T05:38:24;99706.91;;;22.33;100.00
75136;BME280;63707;52.212;9.540;2023-06-26T05:40:52;99711.25;;;22.44;100.00
75136;BME280;63707;52.212;9.540;2023-06-26T05:43:18;99714.91;;;22.39;100.00
75136;BME280;63707;52.212;9.540;2023-06-26T05:45:46;99704.75;;;22.53;100.00
75136;BME280;63707;52.212;9.540;2023-06-26T05:48:12;99706.06;;;22.61;100.00
75136;BME280;63707;52.212;9.540;2023-06-26T05:50:38;99700.19;;;22.62;100.00
75136;BME280;63707;52.212;9.540;2023-06-26T05:53:04;99705.81;;;22.57;100.00
75136;BME280;63707;52.212;9.540;2023-06-26T05:55:31;99709.00;;;22.70;100.00
75136;BME280;63707;52.212;9.540;2023-06-26T05:57:58;99703.09;;;22.52;100.00
75136;BME280;63707;52.212;9.540;2023-06-26T06:00:26;99707.66;;;22.67;100.00
75136;BME280;63707;52.212;9.540;2023-06-26T06:02:52;99708.19;;;22.69;100.00
75136;BME280;63707;52.212;9.540;2023-06-26T06:05:19;99703.13;;;22.76;100.00
75136;BME280;63707;52.212;9.540;2023-06-26T06:07:44;99697.78;;;22.85;100.00
75136;BME280;63707;52.212;9.540;2023-06-26T06:10:10;99702.28;;;22.81;100.00
75136;BME280;63707;52.212;9.540;2023-06-26T06:12:35;99689.44;;;22.85;100.00
75136;BME280;63707;52.212;9.540;2023-06-26T06:15:02;99699.53;;;22.76;100.00
75136;BME280;63707;52.212;9.540;2023-06-26T06:17:28;99696.22;;;22.98;100.00
75136;BME280;63707;52.212;9.540;2023-06-26T06:19:53;99685.09;;;22.98;100.00
75136;BME280;63707;52.212;9.540;2023-06-26T06:22:19;99680.38;;;22.98;100.00
75136;BME280;63707;52.212;9.540;2023-06-26T06:24:44;99692.41;;;23.12;100.00
75136;BME280;63707;52.212;9.540;2023-06-26T06:27:10;99686.44;;;23.24;100.00
75136;BME280;63707;52.212;9.540;2023-06-26T06:29:36;99695.38;;;23.21;100.00
75136;BME280;63707;52.212;9.540;2023-06-26T06:32:03;99687.59;;;23.61;100.00
75136;BME280;63707;52.212;9.540;2023-06-26T06:34:29;99701.25;;;23.38;100.00
75136;BME280;63707;52.212;9.540;2023-06-26T06:36:54;99685.84;;;23.27;100.00
75136;BME280;63707;52.212;9.540;2023-06-26T06:39:19;99690.69;;;23.59;100.00
75136;BME280;63707;52.212;9.540;2023-06-26T06:41:45;99687.97;;;23.73;100.00
75136;BME280;63707;52.212;9.540;2023-06-26T06:44:10;99693.72;;;23.95;100.00
75136;BME280;63707;52.212;9.540;2023-06-26T06:46:36;99689.41;;;23.70;100.00
75136;BME280;63707;52.212;9.540;2023-06-26T06:49:03;99697.19;;;24.38;100.00
75136;BME280;63707;52.212;9.540;2023-06-26T06:51:29;99689.47;;;24.49;100.00
75136;BME280;63707;52.212;9.540;2023-06-26T06:53:54;99690.19;;;24.55;100.00
75136;BME280;63707;52.212;9.540;2023-06-26T06:56:20;99694.66;;;24.69;100.00
75136;BME280;63707;52.212;9.540;2023-06-26T06:58:45;99694.34;;;24.57;100.00
75136;BME280;63707;52.212;9.540;2023-06-26T07:01:12;99700.00;;;24.52;100.00
75136;BME280;63707;52.212;9.540;2023-06-26T07:03:38;99686.41;;;24.78;100.00
75136;BME280;63707;52.212;9.540;2023-06-26T07:06:05;99693.97;;;25.19;100.00
75136;BME280;63707;52.212;9.540;2023-06-26T07:08:31;99690.97;;;24.88;100.00
75136;BME280;63707;52.212;9.540;2023-06-26T07:10:56;99687.03;;;24.75;100.00
75136;BME280;63707;52.212;9.540;2023-06-26T07:13:22;99682.41;;;24.70;100.00
75136;BME280;63707;52.212;9.540;2023-06-26T07:15:48;99686.63;;;24.95;100.00
75136;BME280;63707;52.212;9.540;2023-06-26T07:18:13;99680.84;;;25.05;100.00
75136;BME280;63707;52.212;9.540;2023-06-26T07:20:39;99681.59;;;25.61;100.00
75136;BME280;63707;52.212;9.540;2023-06-26T07:23:06;99689.34;;;25.50;100.00
75136;BME280;63707;52.212;9.540;2023-06-26T07:25:31;99680.03;;;25.68;100.00
75136;BME280;63707;52.212;9.540;2023-06-26T07:27:57;99674.78;;;26.12;100.00
75136;BME280;63707;52.212;9.540;2023-06-26T07:30:23;99679.94;;;25.60;100.00
75136;BME280;63707;52.212;9.540;2023-06-26T07:32:49;99680.47;;;26.29;100.00
75136;BME280;63707;52.212;9.540;2023-06-26T07:35:15;99678.66;;;26.02;100.00
75136;BME280;63707;52.212;9.540;2023-06-26T07:37:40;99678.84;;;25.83;100.00
75136;BME280;63707;52.212;9.540;2023-06-26T07:40:08;99685.38;;;26.23;100.00
75136;BME280;63707;52.212;9.540;2023-06-26T07:42:34;99684.81;;;26.66;100.00
75136;BME280;63707;52.212;9.540;2023-06-26T07:45:00;99689.25;;;25.91;100.00
75136;BME280;63707;52.212;9.540;2023-06-26T07:50:47;99694.03;;;26.66;100.00
75136;BME280;63707;52.212;9.540;2023-06-26T07:53:12;99697.56;;;26.50;100.00
75136;BME280;63707;52.212;9.540;2023-06-26T07:55:39;99691.81;;;26.01;100.00
75136;BME280;63707;52.212;9.540;2023-06-26T07:58:05;99689.03;;;27.51;100.00
75136;BME280;63707;52.212;9.540;2023-06-26T08:00:30;99692.03;;;27.72;100.00
75136;BME280;63707;52.212;9.540;2023-06-26T08:02:56;99687.72;;;27.57;100.00
75136;BME280;63707;52.212;9.540;2023-06-26T08:05:23;99695.72;;;26.23;100.00
75136;BME280;63707;52.212;9.540;2023-06-26T08:07:48;99683.09;;;27.53;100.00
75136;BME280;63707;52.212;9.540;2023-06-26T08:10:14;99685.63;;;27.63;100.00
75136;BME280;63707;52.212;9.540;2023-06-26T08:12:41;99677.03;;;28.03;100.00
75136;BME280;63707;52.212;9.540;2023-06-26T08:15:10;99683.47;;;27.77;100.00
75136;BME280;63707;52.212;9.540;2023-06-26T08:17:36;99676.88;;;27.90;100.00
75136;BME280;63707;52.212;9.540;2023-06-26T08:20:02;99672.72;;;28.78;100.00
75136;BME280;63707;52.212;9.540;2023-06-26T08:22:28;99675.38;;;29.12;100.00
75136;BME280;63707;52.212;9.540;2023-06-26T08:24:54;99671.97;;;28.60;100.00
75136;BME280;63707;52.212;9.540;2023-06-26T08:27:19;99667.03;;;28.57;100.00
75136;BME280;63707;52.212;9.540;2023-06-26T08:29:46;99666.63;;;28.29;100.00
75136;BME280;63707;52.212;9.540;2023-06-26T08:32:12;99668.16;;;27.66;100.00
75136;BME280;63707;52.212;9.540;2023-06-26T08:34:37;99676.59;;;26.70;100.00
75136;BME280;63707;52.212;9.540;2023-06-26T08:37:03;99689.78;;;27.09;100.00
75136;BME280;63707;52.212;9.540;2023-06-26T08:39:28;99685.94;;;27.79;100.00
75136;BME280;63707;52.212;9.540;2023-06-26T08:41:54;99689.06;;;28.03;100.00
75136;BME280;63707;52.212;9.540;2023-06-26T08:44:20;99695.47;;;28.21;100.00
75136;BME280;63707;52.212;9.540;2023-06-26T08:46:51;99698.78;;;28.06;100.00
75136;BME280;63707;52.212;9.540;2023-06-26T08:49:20;99684.41;;;28.33;100.00
75136;BME280;63707;52.212;9.540;2023-06-26T08:51:51;99698.78;;;28.78;100.00
75136;BME280;63707;52.212;9.540;2023-06-26T08:54:22;99699.31;;;29.69;100.00
75136;BME280;63707;52.212;9.540;2023-06-26T08:56:49;99713.34;;;29.90;100.00
75136;BME280;63707;52.212;9.540;2023-06-26T08:59:15;99724.09;;;29.46;100.00
75136;BME280;63707;52.212;9.540;2023-06-26T09:01:41;99720.22;;;29.21;100.00
75136;BME280;63707;52.212;9.540;2023-06-26T09:04:08;99711.00;;;29.71;100.00
75136;BME280;63707;52.212;9.540;2023-06-26T09:06:34;99718.84;;;30.28;100.00
75136;BME280;63707;52.212;9.540;2023-06-26T09:08:59;99728.81;;;29.75;100.00
75136;BME280;63707;52.212;9.540;2023-06-26T09:11:25;99720.13;;;29.68;100.00
75136;BME280;63707;52.212;9.540;2023-06-26T09:13:51;99724.88;;;28.88;100.00
75136;BME280;63707;52.212;9.540;2023-06-26T09:16:17;99717.91;;;30.36;100.00
75136;BME280;63707;52.212;9.540;2023-06-26T09:18:44;99726.44;;;29.65;100.00
75136;BME280;63707;52.212;9.540;2023-06-26T09:21:11;99733.91;;;28.93;100.00
75136;BME280;63707;52.212;9.540;2023-06-26T09:23:39;99739.53;;;28.76;100.00
75136;BME280;63707;52.212;9.540;2023-06-26T09:26:05;99739.00;;;28.01;100.00
75136;BME280;63707;52.212;9.540;2023-06-26T09:28:31;99742.03;;;27.48;100.00
75136;BME280;63707;52.212;9.540;2023-06-26T09:31:01;99749.94;;;27.54;100.00
75136;BME280;63707;52.212;9.540;2023-06-26T09:33:26;99757.25;;;25.95;100.00
75136;BME280;63707;52.212;9.540;2023-06-26T09:35:52;99759.31;;;25.67;100.00
75136;BME280;63707;52.212;9.540;2023-06-26T09:38:19;99762.41;;;25.38;100.00
75136;BME280;63707;52.212;9.540;2023-06-26T09:40:46;99773.53;;;24.84;100.00
75136;BME280;63707;52.212;9.540;2023-06-26T09:43:13;99772.13;;;25.00;100.00
75136;BME280;63707;52.212;9.540;2023-06-26T09:45:39;99781.44;;;24.63;100.00
75136;BME280;63707;52.212;9.540;2023-06-26T09:48:05;99783.41;;;24.62;100.00
75136;BME280;63707;52.212;9.540;2023-06-26T09:50:33;99782.53;;;24.48;100.00
75136;BME280;63707;52.212;9.540;2023-06-26T09:53:07;99790.09;;;25.62;100.00
75136;BME280;63707;52.212;9.540;2023-06-26T09:55:36;99781.44;;;25.09;100.00
75136;BME280;63707;52.212;9.540;2023-06-26T09:58:05;99777.31;;;25.97;100.00
75136;BME280;63707;52.212;9.540;2023-06-26T10:00:31;99786.41;;;26.03;100.00
75136;BME280;63707;52.212;9.540;2023-06-26T10:02:57;99787.81;;;25.64;100.00
75136;BME280;63707;52.212;9.540;2023-06-26T10:05:23;99786.03;;;26.54;100.00
75136;BME280;63707;52.212;9.540;2023-06-26T10:07:48;99799.81;;;25.24;100.00
75136;BME280;63707;52.212;9.540;2023-06-26T10:10:15;99809.00;;;24.64;100.00
75136;BME280;63707;52.212;9.540;2023-06-26T10:12:45;99814.25;;;24.14;100.00
75136;BME280;63707;52.212;9.540;2023-06-26T10:15:13;99817.91;;;22.67;100.00
75136;BME280;63707;52.212;9.540;2023-06-26T10:17:42;99851.19;;;21.19;100.00
75136;BME280;63707;52.212;9.540;2023-06-26T10:20:09;99844.91;;;20.52;100.00
75136;BME280;63707;52.212;9.540;2023-06-26T10:22:39;99851.25;;;20.37;100.00
75136;BME280;63707;52.212;9.540;2023-06-26T10:25:06;99857.34;;;20.65;100.00
75136;BME280;63707;52.212;9.540;2023-06-26T10:27:36;99848.28;;;21.64;100.00
75136;BME280;63707;52.212;9.540;2023-06-26T10:30:10;99830.16;;;23.71;100.00
75136;BME280;63707;52.212;9.540;2023-06-26T10:32:37;99828.66;;;24.87;100.00
75136;BME280;63707;52.212;9.540;2023-06-26T10:35:07;99824.63;;;24.79;100.00
75136;BME280;63707;52.212;9.540;2023-06-26T10:37:43;99822.81;;;24.18;100.00
75136;BME280;63707;52.212;9.540;2023-06-26T10:40:12;99822.50;;;25.03;100.00
75136;BME280;63707;52.212;9.540;2023-06-26T10:42:38;99835.69;;;24.14;100.00
75136;BME280;63707;52.212;9.540;2023-06-26T10:45:14;99843.97;;;23.05;100.00
75136;BME280;63707;52.212;9.540;2023-06-26T10:47:40;99856.56;;;22.63;100.00
75136;BME280;63707;52.212;9.540;2023-06-26T10:50:20;99859.81;;;22.75;100.00
75136;BME280;63707;52.212;9.540;2023-06-26T10:53:09;99854.59;;;22.63;100.00
75136;BME280;63707;52.212;9.540;2023-06-26T10:55:35;99865.19;;;22.27;100.00
75136;BME280;63707;52.212;9.540;2023-06-26T10:58:00;99866.88;;;22.23;100.00
75136;BME280;63707;52.212;9.540;2023-06-26T11:00:28;99862.81;;;22.06;100.00
75136;BME280;63707;52.212;9.540;2023-06-26T11:02:54;99859.88;;;21.82;100.00
75136;BME280;63707;52.212;9.540;2023-06-26T11:05:25;99865.06;;;21.29;100.00
75136;BME280;63707;52.212;9.540;2023-06-26T11:08:05;99866.41;;;21.21;100.00
75136;BME280;63707;52.212;9.540;2023-06-26T11:10:49;99857.84;;;21.13;100.00
75136;BME280;63707;52.212;9.540;2023-06-26T11:13:16;99865.50;;;21.56;100.00
75136;BME280;63707;52.212;9.540;2023-06-26T11:15:44;99866.97;;;22.03;100.00
75136;BME280;63707;52.212;9.540;2023-06-26T11:18:12;99854.50;;;21.95;100.00
75136;BME280;63707;52.212;9.540;2023-06-26T11:20:38;99862.78;;;22.50;100.00
75136;BME280;63707;52.212;9.540;2023-06-26T11:23:04;99863.59;;;22.50;100.00
75136;BME280;63707;52.212;9.540;2023-06-26T11:25:34;99868.94;;;23.10;100.00
75136;BME280;63707;52.212;9.540;2023-06-26T11:28:00;99859.28;;;23.55;100.00
75136;BME280;63707;52.212;9.540;2023-06-26T11:30:26;99869.44;;;24.07;100.00
75136;BME280;63707;52.212;9.540;2023-06-26T11:32:53;99868.00;;;23.91;100.00
75136;BME280;63707;52.212;9.540;2023-06-26T11:35:27;99873.22;;;24.54;100.00
75136;BME280;63707;52.212;9.540;2023-06-26T11:37:55;99864.44;;;26.22;100.00
75136;BME280;63707;52.212;9.540;2023-06-26T11:40:23;99874.44;;;24.99;100.00
75136;BME280;63707;52.212;9.540;2023-06-26T11:42:52;99887.44;;;24.71;100.00
75136;BME280;63707;52.212;9.540;2023-06-26T11:45:19;99883.25;;;24.36;100.00
75136;BME280;63707;52.212;9.540;2023-06-26T11:47:44;99882.28;;;23.84;100.00
75136;BME280;63707;52.212;9.540;2023-06-26T11:50:16;99889.50;;;23.85;100.00
75136;BME280;63707;52.212;9.540;2023-06-26T11:52:42;99901.94;;;23.16;100.00
75136;BME280;63707;52.212;9.540;2023-06-26T11:55:09;99905.22;;;22.95;100.00
75136;BME280;63707;52.212;9.540;2023-06-26T11:57:35;99902.25;;;22.86;100.00
75136;BME280;63707;52.212;9.540;2023-06-26T12:00:10;99897.16;;;22.93;100.00
75136;BME280;63707;52.212;9.540;2023-06-26T12:02:36;99899.06;;;23.55;100.00
75136;BME280;63707;52.212;9.540;2023-06-26T12:05:02;99890.19;;;25.09;100.00
75136;BME280;63707;52.212;9.540;2023-06-26T12:07:29;99884.81;;;26.22;100.00
75136;BME280;63707;52.212;9.540;2023-06-26T12:09:56;99889.53;;;26.49;100.00
75136;BME280;63707;52.212;9.540;2023-06-26T12:12:24;99891.97;;;26.01;100.00
75136;BME280;63707;52.212;9.540;2023-06-26T12:14:50;99888.06;;;26.02;100.00
75136;BME280;63707;52.212;9.540;2023-06-26T12:17:16;99886.69;;;26.63;100.00
75136;BME280;63707;52.212;9.540;2023-06-26T12:19:44;99887.44;;;25.50;100.00
75136;BME280;63707;52.212;9.540;2023-06-26T12:22:10;99895.78;;;25.36;100.00
75136;BME280;63707;52.212;9.540;2023-06-26T12:24:38;99886.41;;;25.60;100.00
75136;BME280;63707;52.212;9.540;2023-06-26T12:27:08;99901.91;;;24.55;100.00
75136;BME280;63707;52.212;9.540;2023-06-26T12:29:33;99907.34;;;23.84;100.00
75136;BME280;63707;52.212;9.540;2023-06-26T12:32:00;99915.91;;;23.64;100.00
75136;BME280;63707;52.212;9.540;2023-06-26T12:34:27;99898.69;;;24.66;100.00
75136;BME280;63707;52.212;9.540;2023-06-26T12:36:53;99900.72;;;25.12;100.00
75136;BME280;63707;52.212;9.540;2023-06-26T12:39:20;99915.09;;;25.19;100.00
75136;BME280;63707;52.212;9.540;2023-06-26T12:41:52;99911.97;;;25.07;100.00
75136;BME280;63707;52.212;9.540;2023-06-26T12:44:24;99901.78;;;24.46;100.00
75136;BME280;63707;52.212;9.540;2023-06-26T12:46:54;99903.81;;;24.40;100.00
75136;BME280;63707;52.212;9.540;2023-06-26T12:49:19;99895.25;;;25.07;100.00
75136;BME280;63707;52.212;9.540;2023-06-26T12:51:45;99903.09;;;25.79;100.00
75136;BME280;63707;52.212;9.540;2023-06-26T12:54:11;99906.13;;;26.68;100.00